Time;durP1;ratioP1;P1;durP2;ratioP2;P2;SDS_P1;SDS_P2;PMS_P1;PMS_P2;Temp;Humidity;BMP_temperature;BMP_pressure;BME280_temperature;BME280_humidity;BME280_pressure;Samples;Min_cycle;Max_cycle;Signal;HPM_P1;HPM_P2
2021/06/23 00:01:38;;;;;;;;;;;;;;;;;;3509380;28;20442;-42
2021/06/23 00:03:19;;;;;;;;;;;;;;;;;;3498719;28;20408;-41
2021/06/23 00:05:00;;;;;;;;;;;;;;;;;;3502250;28;20461;-41
2021/06/23 00:06:40;;;;;;;;;;;;;;;;;;3511437;28;19928;-41
2021/06/23 00:08:21;;;;;;;;;;;;;;;;;;3507954;28;19962;-41
2021/06/23 00:10:02;;;;;;;;;;;;;;;;;;3509308;28;20408;-41
2021/06/23 00:11:44;;;;;;;;;;;;;;;;;;3509052;28;20018;-41
2021/06/23 00:13:27;;;;;;;;;;;;;;;;;;3506644;28;19935;-41
2021/06/23 00:15:08;;;;;;;;;;;;;;;;;;3510521;28;19959;-41
2021/06/23 00:16:55;;;;;;;;;;;;;;;;;;3508095;28;19970;-41
2021/06/23 00:18:36;;;;;;;;;;;;;;;;;;3511560;28;20381;-41
2021/06/23 00:20:17;;;;;;;;;;;;;;;;;;3508102;28;19928;-41
2021/06/23 00:21:58;;;;;;;;;;;;;;;;;;3509937;28;19935;-41
2021/06/23 00:23:39;;;;;;;;;;;;;;;;;;3509445;28;19935;-41
2021/06/23 00:25:20;;;;;;;;;;;;;;;;;;3509207;28;19928;-41
2021/06/23 00:27:01;;;;;;;;;;;;;;;;;;3510228;28;19960;-41
2021/06/23 00:28:42;;;;;;;;;;;;;;;;;;3507802;28;19933;-41
2021/06/23 00:30:23;;;;;;;;;;;;;;;;;;3511192;28;20026;-41
2021/06/23 00:32:04;;;;;;;;;;;;;;;;;;3507951;28;20229;-41
2021/06/23 00:33:45;;;;;;;;;;;;;;;;;;3510739;28;20331;-41
2021/06/23 00:35:26;;;;;;;;;;;;;;;;;;3508455;28;20018;-42
2021/06/23 00:37:07;;;;;;;;;;;;;;;;;;3508182;28;19944;-41
2021/06/23 00:38:48;;;;;;;;;;;;;;;;;;3511119;28;20396;-41
2021/06/23 00:40:29;;;;;;;;;;;;;;;;;;3507712;28;19935;-41
2021/06/23 00:42:10;;;;;;;;;;;;;;;;;;3511105;28;19978;-42
2021/06/23 00:43:51;;;;;;;;;;;;;;;;;;3507666;28;19928;-41
2021/06/23 00:45:33;;;;;;;;;;;;;;;;;;3510845;28;20014;-41
2021/06/23 00:47:14;;;;;;;;;;;;;;;;;;3507060;28;19960;-41
2021/06/23 00:48:54;;;;;;;;;;;;;;;;;;3507079;28;20469;-41
2021/06/23 00:50:35;;;;;;;;;;;;;;;;;;3510197;28;19928;-41
2021/06/23 00:52:16;;;;;;;;;;;;;;;;;;3507682;28;21024;-41
2021/06/23 00:53:57;;;;;;;;;;;;;;;;;;3511116;28;19978;-41
2021/06/23 00:55:38;;;;;;;;;;;;;;;;;;3507527;28;19950;-41
2021/06/23 00:57:19;;;;;;;;;;;;;;;;;;3510413;28;19928;-41
2021/06/23 00:59:00;;;;;;;;;;;;;;;;;;3508129;28;20023;-41
2021/06/23 01:00:41;;;;;;;;;;;;;;;;;;3508957;28;20416;-41
2021/06/23 01:02:22;;;;;;;;;;;;;;;;;;3509284;28;20022;-41
2021/06/23 01:04:03;;;;;;;;;;;;;;;;;;3507904;28;20019;-41
2021/06/23 01:05:44;;;;;;;;;;;;;;;;;;3510549;28;19932;-41
2021/06/23 01:07:25;;;;;;;;;;;;;;;;;;3507592;28;20011;-41
2021/06/23 01:09:06;;;;;;;;;;;;;;;;;;3510814;28;20467;-41
2021/06/23 01:10:46;;;;;;;;;;;;;;;;;;3507406;28;19970;-41
2021/06/23 01:12:27;;;;;;;;;;;;;;;;;;3508961;28;20012;-41
2021/06/23 01:14:08;;;;;;;;;;;;;;;;;;3507802;28;19932;-41
2021/06/23 01:15:49;;;;;;;;;;;;;;;;;;3507470;28;19993;-41
2021/06/23 01:17:30;;;;;;;;;;;;;;;;;;3510856;28;19977;-41
2021/06/23 01:19:11;;;;;;;;;;;;;;;;;;3505801;28;20031;-41
2021/06/23 01:20:52;;;;;;;;;;;;;;;;;;3510766;28;20001;-41
2021/06/23 01:22:33;;;;;;;;;;;;;;;;;;3507299;28;19928;-42
2021/06/23 01:24:14;;;;;;;;;;;;;;;;;;3509792;28;19989;-41
2021/06/23 01:25:55;;;;;;;;;;;;;;;;;;3508344;28;19928;-41
2021/06/23 01:27:36;;;;;;;;;;;;;;;;;;3506182;28;19967;-41
2021/06/23 01:29:17;;;;;;;;;;;;;;;;;;3510396;28;19934;-41
2021/06/23 01:30:58;;;;;;;;;;;;;;;;;;3507331;28;19932;-41
2021/06/23 01:32:39;;;;;;;;;;;;;;;;;;3510469;28;19935;-41
2021/06/23 01:34:20;;;;;;;;;;;;;;;;;;3505979;28;20036;-42
2021/06/23 01:36:01;;;;;;;;;;;;;;;;;;3509921;28;19928;-41
2021/06/23 01:37:42;;;;;;;;;;;;;;;;;;3506258;28;19935;-41
2021/06/23 01:39:22;;;;;;;;;;;;;;;;;;3507953;28;20023;-41
2021/06/23 01:41:03;;;;;;;;;;;;;;;;;;3510070;28;20467;-42
2021/06/23 01:42:44;;;;;;;;;;;;;;;;;;3506941;28;19928;-41
2021/06/23 01:44:25;;;;;;;;;;;;;;;;;;3510667;28;20022;-41
2021/06/23 01:46:06;;;;;;;;;;;;;;;;;;3505739;28;19981;-41
2021/06/23 01:47:47;;;;;;;;;;;;;;;;;;3509978;28;19935;-41
2021/06/23 01:49:28;;;;;;;;;;;;;;;;;;3507604;28;19928;-42
2021/06/23 01:51:09;;;;;;;;;;;;;;;;;;3506964;28;19932;-42
2021/06/23 01:52:50;;;;;;;;;;;;;;;;;;3509554;28;19996;-41
2021/06/23 01:54:31;;;;;;;;;;;;;;;;;;3507034;28;19935;-41
2021/06/23 01:56:12;;;;;;;;;;;;;;;;;;3510313;28;19973;-41
2021/06/23 01:57:53;;;;;;;;;;;;;;;;;;3507135;28;20274;-42
2021/06/23 01:59:34;;;;;;;;;;;;;;;;;;3512441;28;19928;-42
2021/06/23 02:01:15;;;;;;;;;;;;;;;;;;3501294;28;19971;-42
2021/06/23 02:02:56;;;;;;;;;;;;;;;;;;3500054;28;19971;-41
2021/06/23 02:04:37;;;;;;;;;;;;;;;;;;3510145;28;19953;-42
2021/06/23 02:06:18;;;;;;;;;;;;;;;;;;3510179;28;20014;-41
2021/06/23 02:07:59;;;;;;;;;;;;;;;;;;3512099;28;20317;-42
2021/06/23 02:09:39;;;;;;;;;;;;;;;;;;3509417;28;20389;-42
2021/06/23 02:11:20;;;;;;;;;;;;;;;;;;3512697;28;19981;-41
2021/06/23 02:13:01;;;;;;;;;;;;;;;;;;3508131;28;19928;-41
2021/06/23 02:14:42;;;;;;;;;;;;;;;;;;3511386;28;19932;-41
2021/06/23 02:16:23;;;;;;;;;;;;;;;;;;3510771;28;20091;-42
2021/06/23 02:18:06;;;;;;;;;;;;;;;;;;3509716;28;20355;-42
2021/06/23 02:19:47;;;;;;;;;;;;;;;;;;3512869;28;19966;-42
2021/06/23 02:21:27;;;;;;;;;;;;;;;;;;3509097;28;19927;-42
2021/06/23 02:23:08;;;;;;;;;;;;;;;;;;3513106;28;19935;-42
2021/06/23 02:24:49;;;;;;;;;;;;;;;;;;3509187;28;19935;-42
2021/06/23 02:26:30;;;;;;;;;;;;;;;;;;3512078;28;20094;-42
2021/06/23 02:28:11;;;;;;;;;;;;;;;;;;3509897;28;19935;-42
2021/06/23 02:29:52;;;;;;;;;;;;;;;;;;3509079;28;19932;-42
2021/06/23 02:31:33;;;;;;;;;;;;;;;;;;3512323;28;19931;-42
2021/06/23 02:33:14;;;;;;;;;;;;;;;;;;3508782;28;20408;-42
2021/06/23 02:34:55;;;;;;;;;;;;;;;;;;3512603;28;19973;-42
2021/06/23 02:36:36;;;;;;;;;;;;;;;;;;3508977;28;20018;-42
2021/06/23 02:38:17;;;;;;;;;;;;;;;;;;3511990;28;19935;-41
2021/06/23 02:39:58;;;;;;;;;;;;;;;;;;3509532;28;19972;-42
2021/06/23 02:41:39;;;;;;;;;;;;;;;;;;3510283;28;20046;-42
2021/06/23 02:43:20;;;;;;;;;;;;;;;;;;3511020;28;19934;-42
2021/06/23 02:45:01;;;;;;;;;;;;;;;;;;3508951;28;19933;-42
2021/06/23 02:46:42;;;;;;;;;;;;;;;;;;3512536;28;19982;-42
2021/06/23 02:48:23;;;;;;;;;;;;;;;;;;3507718;28;20401;-41
2021/06/23 02:50:04;;;;;;;;;;;;;;;;;;3512072;28;19928;-42
2021/06/23 02:51:45;;;;;;;;;;;;;;;;;;3510176;28;20464;-42
2021/06/23 02:53:25;;;;;;;;;;;;;;;;;;3510631;28;19980;-42
2021/06/23 02:55:06;;;;;;;;;;;;;;;;;;3510904;28;19928;-42
2021/06/23 02:56:47;;;;;;;;;;;;;;;;;;3509121;28;19973;-42
2021/06/23 02:58:28;;;;;;;;;;;;;;;;;;3512018;28;20311;-42
2021/06/23 03:00:09;;;;;;;;;;;;;;;;;;3507629;28;19928;-42
2021/06/23 03:01:50;;;;;;;;;;;;;;;;;;3512178;28;19932;-43
2021/06/23 03:03:30;;;;;;;;;;;;;;;;;;3507329;28;19950;-42
2021/06/23 03:05:11;;;;;;;;;;;;;;;;;;3510107;28;19928;-42
2021/06/23 03:06:52;;;;;;;;;;;;;;;;;;3510692;28;19932;-42
2021/06/23 03:08:33;;;;;;;;;;;;;;;;;;3509035;28;19935;-41
2021/06/23 03:10:14;;;;;;;;;;;;;;;;;;3511001;28;20371;-43
2021/06/23 03:11:55;;;;;;;;;;;;;;;;;;3508574;28;19954;-42
2021/06/23 03:13:39;;;;;;;;;;;;;;;;;;3510695;28;19928;-42
2021/06/23 03:15:19;;;;;;;;;;;;;;;;;;3508621;28;19970;-42
2021/06/23 03:17:00;;;;;;;;;;;;;;;;;;3510655;28;19928;-42
2021/06/23 03:18:41;;;;;;;;;;;;;;;;;;3510009;28;20026;-42
2021/06/23 03:20:22;;;;;;;;;;;;;;;;;;3508998;28;19959;-42
2021/06/23 03:22:04;;;;;;;;;;;;;;;;;;3511767;28;20420;-42
2021/06/23 03:23:45;;;;;;;;;;;;;;;;;;3508608;28;19928;-42
2021/06/23 03:25:26;;;;;;;;;;;;;;;;;;3512142;28;20018;-42
2021/06/23 03:27:07;;;;;;;;;;;;;;;;;;3508549;28;20308;-42
2021/06/23 03:28:48;;;;;;;;;;;;;;;;;;3511108;28;20465;-42
2021/06/23 03:30:28;;;;;;;;;;;;;;;;;;3509186;28;20023;-42
2021/06/23 03:32:10;;;;;;;;;;;;;;;;;;3508457;28;19928;-43
2021/06/23 03:33:52;;;;;;;;;;;;;;;;;;3511118;28;19928;-42
2021/06/23 03:35:33;;;;;;;;;;;;;;;;;;3507417;28;19963;-42
2021/06/23 03:37:15;;;;;;;;;;;;;;;;;;3511887;28;19935;-42
2021/06/23 03:38:56;;;;;;;;;;;;;;;;;;3508614;28;20025;-42
2021/06/23 03:40:37;;;;;;;;;;;;;;;;;;3511398;28;19928;-42
2021/06/23 03:42:18;;;;;;;;;;;;;;;;;;3508607;28;20420;-43
2021/06/23 03:43:59;;;;;;;;;;;;;;;;;;3508962;28;19928;-42
2021/06/23 03:45:40;;;;;;;;;;;;;;;;;;3511328;28;19934;-42
2021/06/23 03:47:20;;;;;;;;;;;;;;;;;;3508294;28;20301;-42
2021/06/23 03:49:01;;;;;;;;;;;;;;;;;;3511732;28;19928;-42
2021/06/23 03:50:44;;;;;;;;;;;;;;;;;;3507140;28;19939;-42
2021/06/23 03:52:25;;;;;;;;;;;;;;;;;;3511284;28;20393;-43
2021/06/23 03:54:06;;;;;;;;;;;;;;;;;;3508900;28;19972;-42
2021/06/23 03:55:50;;;;;;;;;;;;;;;;;;3509030;28;19932;-42
2021/06/23 03:57:31;;;;;;;;;;;;;;;;;;3511001;28;19958;-42
2021/06/23 03:59:12;;;;;;;;;;;;;;;;;;3507778;28;19955;-42
2021/06/23 04:00:53;;;;;;;;;;;;;;;;;;3497970;28;20407;-42
2021/06/23 04:02:34;;;;;;;;;;;;;;;;;;3503978;28;19973;-42
2021/06/23 04:04:15;;;;;;;;;;;;;;;;;;3511080;28;19928;-43
2021/06/23 04:05:56;;;;;;;;;;;;;;;;;;3508713;28;20015;-43
2021/06/23 04:07:37;;;;;;;;;;;;;;;;;;3509790;28;20300;-42
2021/06/23 04:09:18;;;;;;;;;;;;;;;;;;3509965;28;19928;-42
2021/06/23 04:10:59;;;;;;;;;;;;;;;;;;3506968;28;19932;-42
2021/06/23 04:12:41;;;;;;;;;;;;;;;;;;3497666;28;19935;-42
2021/06/23 04:14:22;;;;;;;;;;;;;;;;;;3504140;28;20389;-43
2021/06/23 04:16:03;;;;;;;;;;;;;;;;;;3511594;28;20379;-42
2021/06/23 04:17:44;;;;;;;;;;;;;;;;;;3501039;28;19977;-43
2021/06/23 04:19:25;;;;;;;;;;;;;;;;;;3498501;28;19927;-44
2021/06/23 04:21:05;;;;;;;;;;;;;;;;;;3509892;28;19928;-42
2021/06/23 04:22:46;;;;;;;;;;;;;;;;;;3506733;28;20015;-42
2021/06/23 04:24:27;;;;;;;;;;;;;;;;;;3511093;28;19927;-43
2021/06/23 04:26:08;;;;;;;;;;;;;;;;;;3505438;28;20416;-42
2021/06/23 04:27:49;;;;;;;;;;;;;;;;;;3497732;28;20424;-42
2021/06/23 04:29:30;;;;;;;;;;;;;;;;;;3507234;28;20049;-44
2021/06/23 04:31:11;;;;;;;;;;;;;;;;;;3510042;28;20317;-44
2021/06/23 04:32:52;;;;;;;;;;;;;;;;;;3509373;28;20409;-44
2021/06/23 04:34:33;;;;;;;;;;;;;;;;;;3508956;28;20015;-44
2021/06/23 04:36:14;;;;;;;;;;;;;;;;;;3510965;28;19951;-46
2021/06/23 04:37:55;;;;;;;;;;;;;;;;;;3506416;28;19982;-44
2021/06/23 04:39:36;;;;;;;;;;;;;;;;;;3511215;28;20019;-47
2021/06/23 04:41:17;;;;;;;;;;;;;;;;;;3507734;28;19928;-44
2021/06/23 04:42:58;;;;;;;;;;;;;;;;;;3510481;28;19934;-46
2021/06/23 04:44:39;;;;;;;;;;;;;;;;;;3508559;28;20065;-46
2021/06/23 04:46:20;;;;;;;;;;;;;;;;;;3507909;28;19981;-45
2021/06/23 04:48:01;;;;;;;;;;;;;;;;;;3511449;28;19971;-45
2021/06/23 04:49:42;;;;;;;;;;;;;;;;;;3507472;28;20403;-48
2021/06/23 04:51:23;;;;;;;;;;;;;;;;;;3510898;28;19932;-45
2021/06/23 04:53:04;;;;;;;;;;;;;;;;;;3507835;28;20026;-45
2021/06/23 04:54:45;;;;;;;;;;;;;;;;;;3510731;28;19967;-45
2021/06/23 04:56:26;;;;;;;;;;;;;;;;;;3506820;28;19935;-45
2021/06/23 04:58:06;;;;;;;;;;;;;;;;;;3508951;28;20448;-44
2021/06/23 04:59:47;;;;;;;;;;;;;;;;;;3509716;28;19962;-45
2021/06/23 05:01:28;;;;;;;;;;;;;;;;;;3507518;28;19928;-48
2021/06/23 05:03:09;;;;;;;;;;;;;;;;;;3510973;28;19967;-45
2021/06/23 05:04:50;;;;;;;;;;;;;;;;;;3507378;28;20039;-43
2021/06/23 05:06:31;;;;;;;;;;;;;;;;;;3510781;28;19932;-44
2021/06/23 05:08:12;;;;;;;;;;;;;;;;;;3506869;28;20014;-42
2021/06/23 05:09:53;;;;;;;;;;;;;;;;;;3509031;28;19928;-43
2021/06/23 05:11:34;;;;;;;;;;;;;;;;;;3508517;28;19973;-43
2021/06/23 05:13:15;;;;;;;;;;;;;;;;;;3506364;28;19934;-42
2021/06/23 05:14:56;;;;;;;;;;;;;;;;;;3510964;28;19928;-42
2021/06/23 05:16:37;;;;;;;;;;;;;;;;;;3507232;28;19942;-43
2021/06/23 05:18:18;;;;;;;;;;;;;;;;;;3510765;28;20359;-42
2021/06/23 05:19:59;;;;;;;;;;;;;;;;;;3508651;28;19928;-43
2021/06/23 05:21:40;;;;;;;;;;;;;;;;;;3508683;28;20270;-42
2021/06/23 05:23:22;;;;;;;;;;;;;;;;;;3509210;28;19928;-42
2021/06/23 05:25:03;;;;;;;;;;;;;;;;;;3506106;28;19989;-43
2021/06/23 05:26:43;;;;;;;;;;;;;;;;;;3510413;28;19928;-42
2021/06/23 05:28:24;;;;;;;;;;;;;;;;;;3507380;28;20026;-43
2021/06/23 05:30:05;;;;;;;;;;;;;;;;;;3510754;28;19940;-43
2021/06/23 05:31:46;;;;;;;;;;;;;;;;;;3507238;28;19928;-42
2021/06/23 05:33:27;;;;;;;;;;;;;;;;;;3509240;28;20019;-44
2021/06/23 05:35:08;;;;;;;;;;;;;;;;;;3508338;28;19975;-43
2021/06/23 05:36:49;;;;;;;;;;;;;;;;;;3508199;28;20332;-44
2021/06/23 05:38:30;;;;;;;;;;;;;;;;;;3509239;28;20480;-47
2021/06/23 05:40:11;;;;;;;;;;;;;;;;;;3505749;28;20017;-44
2021/06/23 05:41:52;;;;;;;;;;;;;;;;;;3496563;28;19935;-45
2021/06/23 05:43:33;;;;;;;;;;;;;;;;;;3504949;28;20038;-43
2021/06/23 05:45:14;;;;;;;;;;;;;;;;;;3510156;28;20026;-45
2021/06/23 05:46:55;;;;;;;;;;;;;;;;;;3507687;28;20416;-47
2021/06/23 05:48:36;;;;;;;;;;;;;;;;;;3508346;28;19932;-44
2021/06/23 05:50:17;;;;;;;;;;;;;;;;;;3509005;28;20419;-44
2021/06/23 05:51:58;;;;;;;;;;;;;;;;;;3506008;28;20023;-43
2021/06/23 05:53:39;;;;;;;;;;;;;;;;;;3510487;28;20393;-43
2021/06/23 05:55:21;;;;;;;;;;;;;;;;;;3506952;28;20019;-44
2021/06/23 05:57:02;;;;;;;;;;;;;;;;;;3510180;28;19963;-44
2021/06/23 05:58:43;;;;;;;;;;;;;;;;;;3507361;28;20415;-43
2021/06/23 06:00:24;;;;;;;;;;;;;;;;;;3508225;28;19928;-42
2021/06/23 06:02:05;;;;;;;;;;;;;;;;;;3509475;28;19928;-44
2021/06/23 06:03:46;;;;;;;;;;;;;;;;;;3506943;28;20198;-43
2021/06/23 06:05:29;;;;;;;;;;;;;;;;;;3510421;28;19960;-42
2021/06/23 06:07:10;;;;;;;;;;;;;;;;;;3505996;28;20010;-43
2021/06/23 06:08:51;;;;;;;;;;;;;;;;;;3509777;28;19928;-43
2021/06/23 06:10:33;;;;;;;;;;;;;;;;;;3507142;28;20348;-44
2021/06/23 06:12:15;;;;;;;;;;;;;;;;;;3508089;28;19973;-44
2021/06/23 06:13:56;;;;;;;;;;;;;;;;;;3508069;28;19928;-43
2021/06/23 06:15:37;;;;;;;;;;;;;;;;;;3505867;28;20452;-44
2021/06/23 06:17:18;;;;;;;;;;;;;;;;;;3509906;28;20019;-44
2021/06/23 06:18:59;;;;;;;;;;;;;;;;;;3505846;28;20354;-43
2021/06/23 06:20:40;;;;;;;;;;;;;;;;;;3510445;28;19928;-43
2021/06/23 06:22:21;;;;;;;;;;;;;;;;;;3506644;28;20247;-43
2021/06/23 06:24:02;;;;;;;;;;;;;;;;;;3506887;28;20377;-43
2021/06/23 06:25:43;;;;;;;;;;;;;;;;;;3508694;28;20035;-43
2021/06/23 06:27:24;;;;;;;;;;;;;;;;;;3506745;28;20361;-46
2021/06/23 06:29:06;;;;;;;;;;;;;;;;;;3509963;28;19954;-46
2021/06/23 06:30:48;;;;;;;;;;;;;;;;;;3505426;28;19928;-46
2021/06/23 06:32:29;;;;;;;;;;;;;;;;;;3510090;28;20480;-45
2021/06/23 06:34:10;;;;;;;;;;;;;;;;;;3506656;28;19993;-43
2021/06/23 06:35:51;;;;;;;;;;;;;;;;;;3508114;28;20084;-44
2021/06/23 06:37:32;;;;;;;;;;;;;;;;;;3508474;28;20014;-44
2021/06/23 06:39:13;;;;;;;;;;;;;;;;;;3506631;28;19931;-44
2021/06/23 06:40:54;;;;;;;;;;;;;;;;;;3510249;28;19967;-43
2021/06/23 06:42:35;;;;;;;;;;;;;;;;;;3506475;28;20278;-44
2021/06/23 06:44:17;;;;;;;;;;;;;;;;;;3510055;28;20092;-44
2021/06/23 06:45:58;;;;;;;;;;;;;;;;;;3507707;28;20025;-45
2021/06/23 06:47:39;;;;;;;;;;;;;;;;;;3511423;28;19954;-47
2021/06/23 06:49:20;;;;;;;;;;;;;;;;;;3510261;28;19966;-43
2021/06/23 06:51:01;;;;;;;;;;;;;;;;;;3508510;28;20456;-46
2021/06/23 06:52:42;;;;;;;;;;;;;;;;;;3511839;28;19954;-43
2021/06/23 06:54:23;;;;;;;;;;;;;;;;;;3508196;28;19995;-43
2021/06/23 06:56:04;;;;;;;;;;;;;;;;;;3512389;28;19948;-44
2021/06/23 06:57:45;;;;;;;;;;;;;;;;;;3507819;28;20026;-44
2021/06/23 06:59:26;;;;;;;;;;;;;;;;;;3512157;28;19928;-46
2021/06/23 07:01:07;;;;;;;;;;;;;;;;;;3509706;28;19928;-44
2021/06/23 07:02:48;;;;;;;;;;;;;;;;;;3508988;28;20408;-44
2021/06/23 07:04:28;;;;;;;;;;;;;;;;;;3510943;28;19928;-43
2021/06/23 07:06:09;;;;;;;;;;;;;;;;;;3508815;28;19928;-44
2021/06/23 07:07:50;;;;;;;;;;;;;;;;;;3512266;28;19949;-44
2021/06/23 07:09:31;;;;;;;;;;;;;;;;;;3507163;28;20010;-45
2021/06/23 07:11:12;;;;;;;;;;;;;;;;;;3511690;28;20364;-44
2021/06/23 07:12:53;;;;;;;;;;;;;;;;;;3509145;28;19927;-45
2021/06/23 07:14:35;;;;;;;;;;;;;;;;;;3508506;28;19936;-45
2021/06/23 07:16:16;;;;;;;;;;;;;;;;;;3510554;28;19983;-43
2021/06/23 07:17:59;;;;;;;;;;;;;;;;;;3508821;28;20333;-47
2021/06/23 07:19:40;;;;;;;;;;;;;;;;;;3512269;28;20032;-43
2021/06/23 07:21:21;;;;;;;;;;;;;;;;;;3508728;28;20019;-45
2021/06/23 07:23:02;;;;;;;;;;;;;;;;;;3511620;28;20016;-45
2021/06/23 07:24:45;;;;;;;;;;;;;;;;;;3508957;28;20393;-44
2021/06/23 07:26:26;;;;;;;;;;;;;;;;;;3509620;28;20385;-45
2021/06/23 07:28:09;;;;;;;;;;;;;;;;;;3511012;28;19973;-44
2021/06/23 07:29:50;;;;;;;;;;;;;;;;;;3508818;28;19932;-43
2021/06/23 07:31:38;;;;;;;;;;;;;;;;;;3511958;28;20381;-44
2021/06/23 07:33:19;;;;;;;;;;;;;;;;;;3503664;28;19928;-44
2021/06/23 07:36:58;;;;;;;;;;;;;;;;;;3500051;28;19928;-45
2021/06/23 07:38:42;;;;;;;;;;;;;;;;;;3501598;28;19928;-43
2021/06/23 07:40:40;;;;;;;;;;;;;;;;;;3512002;28;19928;-44
2021/06/23 07:42:21;;;;;;;;;;;;;;;;;;3502537;28;19943;-43
2021/06/23 07:44:02;;;;;;;;;;;;;;;;;;3498971;28;20328;-45
2021/06/23 07:45:46;;;;;;;;;;;;;;;;;;3509976;28;19932;-43
2021/06/23 07:47:34;;;;;;;;;;;;;;;;;;3508934;28;19935;-44
2021/06/23 07:49:16;;;;;;;;;;;;;;;;;;3511836;28;19981;-44
2021/06/23 07:51:06;;;;;;;;;;;;;;;;;;3508275;28;20389;-44
2021/06/23 07:52:52;;;;;;;;;;;;;;;;;;3511652;28;19935;-45
2021/06/23 07:54:45;;;;;;;;;;;;;;;;;;3509445;28;20467;-44
2021/06/23 07:56:35;;;;;;;;;;;;;;;;;;3507732;28;19975;-44
2021/06/23 08:08:26;;;;;;;;;;;;;;;;;;3463832;28;20006;-45
2021/06/23 08:10:09;;;;;;;;;;;;;;;;;;3511348;28;19927;-43
2021/06/23 08:11:53;;;;;;;;;;;;;;;;;;3506829;28;19975;-44
2021/06/23 08:13:34;;;;;;;;;;;;;;;;;;3508253;28;20380;-44
2021/06/23 08:15:15;;;;;;;;;;;;;;;;;;3510094;28;19978;-44
2021/06/23 08:16:56;;;;;;;;;;;;;;;;;;3508238;28;19942;-45
2021/06/23 08:18:37;;;;;;;;;;;;;;;;;;3511124;28;19935;-45
2021/06/23 08:20:18;;;;;;;;;;;;;;;;;;3507801;28;20026;-44
2021/06/23 08:21:59;;;;;;;;;;;;;;;;;;3511367;28;19932;-43
2021/06/23 08:23:40;;;;;;;;;;;;;;;;;;3507670;28;19928;-44
2021/06/23 08:25:21;;;;;;;;;;;;;;;;;;3509430;28;19967;-43
2021/06/23 08:27:02;;;;;;;;;;;;;;;;;;3510009;28;19927;-44
2021/06/23 08:28:44;;;;;;;;;;;;;;;;;;3509201;28;20273;-44
2021/06/23 08:30:25;;;;;;;;;;;;;;;;;;3510418;28;20393;-45
2021/06/23 08:32:06;;;;;;;;;;;;;;;;;;3507948;28;20028;-44
2021/06/23 08:33:47;;;;;;;;;;;;;;;;;;3511333;28;19928;-43
2021/06/23 08:35:28;;;;;;;;;;;;;;;;;;3507999;28;20304;-44
2021/06/23 08:37:09;;;;;;;;;;;;;;;;;;3510562;28;20460;-46
2021/06/23 08:38:51;;;;;;;;;;;;;;;;;;3508336;28;19928;-43
2021/06/23 08:40:31;;;;;;;;;;;;;;;;;;3508214;28;19959;-44
2021/06/23 08:42:12;;;;;;;;;;;;;;;;;;3511107;28;19939;-46
2021/06/23 08:43:53;;;;;;;;;;;;;;;;;;3506710;28;19939;-45
2021/06/23 08:45:34;;;;;;;;;;;;;;;;;;3511050;28;19934;-43
2021/06/23 08:47:15;;;;;;;;;;;;;;;;;;3507476;28;19987;-44
2021/06/23 08:48:56;;;;;;;;;;;;;;;;;;3510738;28;19969;-45
2021/06/23 08:50:37;;;;;;;;;;;;;;;;;;3506910;28;20396;-43
2021/06/23 08:52:18;;;;;;;;;;;;;;;;;;3507891;28;20066;-44
2021/06/23 08:53:59;;;;;;;;;;;;;;;;;;3509925;28;20297;-44
2021/06/23 08:55:40;;;;;;;;;;;;;;;;;;3507928;28;19973;-44
2021/06/23 08:57:21;;;;;;;;;;;;;;;;;;3510982;28;20381;-44
2021/06/23 08:59:02;;;;;;;;;;;;;;;;;;3506575;28;19928;-44
2021/06/23 09:00:43;;;;;;;;;;;;;;;;;;3510547;28;19929;-44
2021/06/23 09:02:24;;;;;;;;;;;;;;;;;;3508333;28;19932;-44
2021/06/23 09:04:04;;;;;;;;;;;;;;;;;;3508555;28;19935;-44
2021/06/23 09:05:45;;;;;;;;;;;;;;;;;;3509630;28;20005;-45
2021/06/23 09:07:27;;;;;;;;;;;;;;;;;;3508023;28;20283;-44
2021/06/23 09:09:08;;;;;;;;;;;;;;;;;;3509902;28;19983;-43
2021/06/23 09:10:49;;;;;;;;;;;;;;;;;;3507357;28;19944;-45
2021/06/23 09:12:30;;;;;;;;;;;;;;;;;;3511159;28;20300;-45
2021/06/23 09:14:11;;;;;;;;;;;;;;;;;;3505776;28;20403;-44
2021/06/23 09:15:52;;;;;;;;;;;;;;;;;;3509093;28;19928;-44
2021/06/23 09:17:33;;;;;;;;;;;;;;;;;;3508295;28;20305;-45
2021/06/23 09:19:13;;;;;;;;;;;;;;;;;;3507467;28;19974;-45
2021/06/23 09:20:54;;;;;;;;;;;;;;;;;;3510865;28;20393;-44
2021/06/23 09:22:35;;;;;;;;;;;;;;;;;;3507447;28;20377;-47
2021/06/23 09:24:16;;;;;;;;;;;;;;;;;;3510706;28;19928;-45
2021/06/23 09:25:57;;;;;;;;;;;;;;;;;;3507597;28;19928;-46
2021/06/23 09:27:38;;;;;;;;;;;;;;;;;;3507536;28;19981;-46
2021/06/23 09:29:19;;;;;;;;;;;;;;;;;;3508260;28;19935;-47
2021/06/23 09:31:00;;;;;;;;;;;;;;;;;;3507214;28;20385;-45
2021/06/23 09:32:41;;;;;;;;;;;;;;;;;;3496535;28;19944;-44
2021/06/23 09:34:22;;;;;;;;;;;;;;;;;;3502271;28;19932;-44
2021/06/23 09:36:03;;;;;;;;;;;;;;;;;;3511019;28;19932;-45
2021/06/23 09:37:59;;;;;;;;;;;;;;;;;;3507068;28;19935;-44
2021/06/23 09:39:40;;;;;;;;;;;;;;;;;;3509007;28;19928;-45
2021/06/23 09:41:21;;;;;;;;;;;;;;;;;;3509225;28;20343;-45
2021/06/23 09:43:18;;;;;;;;;;;;;;;;;;3506444;28;19981;-44
2021/06/23 09:44:59;;;;;;;;;;;;;;;;;;3510874;28;20389;-44
2021/06/23 09:46:40;;;;;;;;;;;;;;;;;;3506811;28;20290;-45
2021/06/23 09:48:21;;;;;;;;;;;;;;;;;;3509694;28;19928;-45
2021/06/23 09:50:02;;;;;;;;;;;;;;;;;;3508305;28;19928;-44
2021/06/23 09:51:43;;;;;;;;;;;;;;;;;;3507030;28;19981;-45
2021/06/23 09:53:24;;;;;;;;;;;;;;;;;;3510311;28;20014;-45
2021/06/23 09:55:05;;;;;;;;;;;;;;;;;;3507095;28;20301;-45
2021/06/23 09:56:47;;;;;;;;;;;;;;;;;;3510753;28;19928;-47
2021/06/23 09:58:29;;;;;;;;;;;;;;;;;;3506804;28;19927;-45
2021/06/23 10:00:10;;;;;;;;;;;;;;;;;;3509679;28;19963;-46
2021/06/23 10:01:51;;;;;;;;;;;;;;;;;;3507579;28;20335;-44
2021/06/23 10:03:34;;;;;;;;;;;;;;;;;;3507581;28;19928;-44
2021/06/23 10:05:15;;;;;;;;;;;;;;;;;;3510530;28;19942;-45
2021/06/23 10:06:56;;;;;;;;;;;;;;;;;;3506789;28;20452;-45
2021/06/23 10:08:37;;;;;;;;;;;;;;;;;;3510277;28;19928;-45
2021/06/23 10:10:18;;;;;;;;;;;;;;;;;;3506973;28;19928;-44
2021/06/23 10:12:00;;;;;;;;;;;;;;;;;;3510117;28;19935;-45
2021/06/23 10:13:41;;;;;;;;;;;;;;;;;;3505911;28;20381;-46
2021/06/23 10:15:22;;;;;;;;;;;;;;;;;;3507298;28;19935;-45
2021/06/23 10:17:04;;;;;;;;;;;;;;;;;;3509744;28;19985;-44
2021/06/23 10:18:45;;;;;;;;;;;;;;;;;;3505776;28;19936;-46
2021/06/23 10:20:26;;;;;;;;;;;;;;;;;;3511927;28;20201;-46
2021/06/23 10:22:08;;;;;;;;;;;;;;;;;;3509243;28;20072;-45
2021/06/23 10:24:06;;;;;;;;;;;;;;;;;;3511249;28;19932;-44
2021/06/23 10:25:47;;;;;;;;;;;;;;;;;;3501220;28;19928;-44
2021/06/23 10:27:28;;;;;;;;;;;;;;;;;;3501891;28;19978;-44
2021/06/23 10:29:09;;;;;;;;;;;;;;;;;;3512725;28;19927;-45
2021/06/23 10:30:50;;;;;;;;;;;;;;;;;;3509272;28;19946;-44
2021/06/23 10:32:31;;;;;;;;;;;;;;;;;;3512577;28;20387;-43
2021/06/23 10:34:12;;;;;;;;;;;;;;;;;;3509243;28;19927;-44
2021/06/23 10:35:53;;;;;;;;;;;;;;;;;;3511317;28;19934;-45
2021/06/23 10:37:36;;;;;;;;;;;;;;;;;;3509900;28;19940;-46
2021/06/23 10:39:17;;;;;;;;;;;;;;;;;;3509908;28;20373;-45
2021/06/23 10:40:58;;;;;;;;;;;;;;;;;;3511745;28;20310;-47
2021/06/23 10:42:39;;;;;;;;;;;;;;;;;;3509992;28;19935;-44
2021/06/23 10:44:20;;;;;;;;;;;;;;;;;;3512603;28;19950;-44
2021/06/23 10:46:01;;;;;;;;;;;;;;;;;;3507962;28;19928;-44
2021/06/23 10:47:42;;;;;;;;;;;;;;;;;;3511501;28;20457;-47
2021/06/23 10:49:23;;;;;;;;;;;;;;;;;;3510441;28;19928;-46
2021/06/23 10:51:04;;;;;;;;;;;;;;;;;;3507710;28;19936;-45
2021/06/23 10:52:45;;;;;;;;;;;;;;;;;;3512218;28;19928;-45
2021/06/23 10:54:25;;;;;;;;;;;;;;;;;;3509099;28;20017;-45
2021/06/23 10:56:06;;;;;;;;;;;;;;;;;;3512506;28;19928;-47
2021/06/23 10:57:48;;;;;;;;;;;;;;;;;;3508922;28;20305;-50
2021/06/23 10:59:29;;;;;;;;;;;;;;;;;;3511390;28;20317;-45
2021/06/23 11:01:10;;;;;;;;;;;;;;;;;;3509467;28;19928;-46
2021/06/23 11:02:52;;;;;;;;;;;;;;;;;;3509072;28;19963;-46
2021/06/23 11:04:33;;;;;;;;;;;;;;;;;;3511812;28;19928;-44
2021/06/23 11:06:14;;;;;;;;;;;;;;;;;;3508194;28;19933;-48
2021/06/23 11:07:55;;;;;;;;;;;;;;;;;;3512297;28;19935;-46
2021/06/23 11:09:36;;;;;;;;;;;;;;;;;;3508652;28;20309;-46
2021/06/23 11:11:17;;;;;;;;;;;;;;;;;;3511645;28;19971;-45
2021/06/23 11:12:58;;;;;;;;;;;;;;;;;;3510009;28;19928;-44
2021/06/23 11:14:39;;;;;;;;;;;;;;;;;;3498531;28;19932;-45
2021/06/23 11:16:20;;;;;;;;;;;;;;;;;;3511305;28;19934;-45
2021/06/23 11:18:01;;;;;;;;;;;;;;;;;;3508982;28;19985;-49
2021/06/23 11:19:42;;;;;;;;;;;;;;;;;;3512476;28;19981;-45
2021/06/23 11:21:23;;;;;;;;;;;;;;;;;;3507345;28;20019;-45
2021/06/23 11:23:04;;;;;;;;;;;;;;;;;;3511765;28;19932;-46
2021/06/23 11:24:45;;;;;;;;;;;;;;;;;;3509334;28;19967;-45
2021/06/23 11:26:25;;;;;;;;;;;;;;;;;;3510091;28;19936;-48
2021/06/23 11:28:06;;;;;;;;;;;;;;;;;;3510472;28;19928;-44
2021/06/23 11:29:48;;;;;;;;;;;;;;;;;;3508862;28;19933;-48
2021/06/23 11:31:29;;;;;;;;;;;;;;;;;;3497444;28;19975;-44
2021/06/23 11:33:10;;;;;;;;;;;;;;;;;;3506123;28;19935;-44
2021/06/23 11:34:53;;;;;;;;;;;;;;;;;;3511892;28;20385;-46
2021/06/23 11:36:34;;;;;;;;;;;;;;;;;;3508131;28;19928;-46
2021/06/23 11:38:15;;;;;;;;;;;;;;;;;;3510043;28;19928;-44
2021/06/23 11:39:56;;;;;;;;;;;;;;;;;;3510595;28;19990;-44
2021/06/23 11:41:37;;;;;;;;;;;;;;;;;;3508569;28;19933;-44
2021/06/23 11:43:18;;;;;;;;;;;;;;;;;;3511810;28;19934;-46
2021/06/23 11:44:59;;;;;;;;;;;;;;;;;;3508588;28;20397;-46